sensor_id;sensor_type;location;lat;lon;timestamp;temperature;humidity
13049;DHT22;6591;51.446;5.404;2023-04-25T00:02:25;8.80;99.90
13049;DHT22;6591;51.446;5.404;2023-04-25T00:04:52;9.40;99.90
13049;DHT22;6591;51.446;5.404;2023-04-25T00:07:21;8.90;99.90
13049;DHT22;6591;51.446;5.404;2023-04-25T00:09:48;8.80;99.90
13049;DHT22;6591;51.446;5.404;2023-04-25T00:12:15;9.90;99.90
13049;DHT22;6591;51.446;5.404;2023-04-25T00:14:42;8.90;99.90
13049;DHT22;6591;51.446;5.404;2023-04-25T00:17:10;8.80;99.90
13049;DHT22;6591;51.446;5.404;2023-04-25T00:19:37;10.90;99.90
13049;DHT22;6591;51.446;5.404;2023-04-25T00:22:04;8.80;99.90
13049;DHT22;6591;51.446;5.404;2023-04-25T00:24:32;8.80;99.90
13049;DHT22;6591;51.446;5.404;2023-04-25T00:26:59;8.80;99.90
13049;DHT22;6591;51.446;5.404;2023-04-25T00:29:26;8.80;99.90
13049;DHT22;6591;51.446;5.404;2023-04-25T00:31:53;8.90;99.90
13049;DHT22;6591;51.446;5.404;2023-04-25T00:34:20;8.70;99.90
13049;DHT22;6591;51.446;5.404;2023-04-25T00:36:47;8.70;99.90
13049;DHT22;6591;51.446;5.404;2023-04-25T00:39:14;8.70;99.90
13049;DHT22;6591;51.446;5.404;2023-04-25T00:41:41;8.70;99.90
13049;DHT22;6591;51.446;5.404;2023-04-25T00:44:09;10.40;99.90
13049;DHT22;6591;51.446;5.404;2023-04-25T00:46:39;8.70;99.90
13049;DHT22;6591;51.446;5.404;2023-04-25T00:49:06;8.60;99.90
13049;DHT22;6591;51.446;5.404;2023-04-25T00:51:33;8.70;99.90
13049;DHT22;6591;51.446;5.404;2023-04-25T00:54:01;8.60;99.90
13049;DHT22;6591;51.446;5.404;2023-04-25T00:56:28;8.60;99.90
13049;DHT22;6591;51.446;5.404;2023-04-25T00:58:56;8.50;99.90
13049;DHT22;6591;51.446;5.404;2023-04-25T01:01:23;8.50;99.90
13049;DHT22;6591;51.446;5.404;2023-04-25T01:03:52;8.40;99.90
13049;DHT22;6591;51.446;5.404;2023-04-25T01:06:21;8.40;99.90
13049;DHT22;6591;51.446;5.404;2023-04-25T01:08:49;8.30;99.90
13049;DHT22;6591;51.446;5.404;2023-04-25T01:11:16;8.30;99.90
13049;DHT22;6591;51.446;5.404;2023-04-25T01:13:43;8.30;99.90
13049;DHT22;6591;51.446;5.404;2023-04-25T01:16:10;8.30;99.90
13049;DHT22;6591;51.446;5.404;2023-04-25T01:18:41;8.30;99.90
13049;DHT22;6591;51.446;5.404;2023-04-25T01:21:11;8.20;99.90
13049;DHT22;6591;51.446;5.404;2023-04-25T01:23:40;9.40;99.90
13049;DHT22;6591;51.446;5.404;2023-04-25T01:26:10;8.20;99.90
13049;DHT22;6591;51.446;5.404;2023-04-25T01:28:39;6.90;99.90
13049;DHT22;6591;51.446;5.404;2023-04-25T01:31:11;8.10;99.90
13049;DHT22;6591;51.446;5.404;2023-04-25T01:33:39;8.00;99.90
13049;DHT22;6591;51.446;5.404;2023-04-25T01:36:06;9.10;99.90
13049;DHT22;6591;51.446;5.404;2023-04-25T01:38:34;7.90;99.90
13049;DHT22;6591;51.446;5.404;2023-04-25T01:41:02;7.80;99.90
13049;DHT22;6591;51.446;5.404;2023-04-25T01:43:29;9.60;99.90
13049;DHT22;6591;51.446;5.404;2023-04-25T01:45:56;7.70;99.90
13049;DHT22;6591;51.446;5.404;2023-04-25T01:48:24;7.70;99.90
13049;DHT22;6591;51.446;5.404;2023-04-25T01:50:51;7.60;99.90
13049;DHT22;6591;51.446;5.404;2023-04-25T01:53:18;7.60;99.90
13049;DHT22;6591;51.446;5.404;2023-04-25T01:55:45;7.50;99.90
13049;DHT22;6591;51.446;5.404;2023-04-25T01:58:15;7.50;99.90
13049;DHT22;6591;51.446;5.404;2023-04-25T02:00:57;8.30;99.90
13049;DHT22;6591;51.446;5.404;2023-04-25T02:03:31;7.40;99.90
13049;DHT22;6591;51.446;5.404;2023-04-25T02:06:02;7.40;99.90
13049;DHT22;6591;51.446;5.404;2023-04-25T02:08:31;7.30;99.90
13049;DHT22;6591;51.446;5.404;2023-04-25T02:10:58;7.30;99.90
13049;DHT22;6591;51.446;5.404;2023-04-25T02:13:31;7.30;99.90
13049;DHT22;6591;51.446;5.404;2023-04-25T02:16:21;8.50;99.90
13049;DHT22;6591;51.446;5.404;2023-04-25T02:18:48;9.20;99.90
13049;DHT22;6591;51.446;5.404;2023-04-25T02:21:15;7.40;99.90
13049;DHT22;6591;51.446;5.404;2023-04-25T02:23:42;7.40;99.90
13049;DHT22;6591;51.446;5.404;2023-04-25T02:26:12;7.40;99.90
13049;DHT22;6591;51.446;5.404;2023-04-25T02:28:42;7.50;99.90
13049;DHT22;6591;51.446;5.404;2023-04-25T02:31:09;7.50;99.90
13049;DHT22;6591;51.446;5.404;2023-04-25T02:33:36;7.60;99.90
13049;DHT22;6591;51.446;5.404;2023-04-25T02:36:04;8.60;99.90
13049;DHT22;6591;51.446;5.404;2023-04-25T02:38:32;7.60;99.90
13049;DHT22;6591;51.446;5.404;2023-04-25T02:40:58;7.60;99.90
13049;DHT22;6591;51.446;5.404;2023-04-25T02:43:25;7.60;99.90
13049;DHT22;6591;51.446;5.404;2023-04-25T02:45:52;9.00;99.90
13049;DHT22;6591;51.446;5.404;2023-04-25T02:48:20;7.60;99.90
13049;DHT22;6591;51.446;5.404;2023-04-25T02:50:48;7.60;99.90
13049;DHT22;6591;51.446;5.404;2023-04-25T02:53:15;7.60;99.90
13049;DHT22;6591;51.446;5.404;2023-04-25T02:55:47;7.50;99.90
13049;DHT22;6591;51.446;5.404;2023-04-25T02:58:14;7.50;99.90
13049;DHT22;6591;51.446;5.404;2023-04-25T03:00:45;7.50;99.90
13049;DHT22;6591;51.446;5.404;2023-04-25T03:03:13;9.40;99.90
13049;DHT22;6591;51.446;5.404;2023-04-25T03:05:40;7.40;99.90
13049;DHT22;6591;51.446;5.404;2023-04-25T03:08:07;7.40;99.90
13049;DHT22;6591;51.446;5.404;2023-04-25T03:10:36;7.40;99.90
13049;DHT22;6591;51.446;5.404;2023-04-25T03:13:06;7.80;99.90
13049;DHT22;6591;51.446;5.404;2023-04-25T03:15:34;7.30;99.90
13049;DHT22;6591;51.446;5.404;2023-04-25T03:18:02;7.30;99.90
13049;DHT22;6591;51.446;5.404;2023-04-25T03:20:29;7.30;99.90
13049;DHT22;6591;51.446;5.404;2023-04-25T03:22:56;7.30;99.90
13049;DHT22;6591;51.446;5.404;2023-04-25T03:25:24;7.30;99.90
13049;DHT22;6591;51.446;5.404;2023-04-25T03:27:50;7.30;99.90
13049;DHT22;6591;51.446;5.404;2023-04-25T03:30:18;7.30;99.90
13049;DHT22;6591;51.446;5.404;2023-04-25T03:32:45;7.30;99.90
13049;DHT22;6591;51.446;5.404;2023-04-25T03:35:15;7.40;99.90
13049;DHT22;6591;51.446;5.404;2023-04-25T03:37:42;7.40;99.90
13049;DHT22;6591;51.446;5.404;2023-04-25T03:40:17;7.40;99.90
13049;DHT22;6591;51.446;5.404;2023-04-25T03:43:07;7.40;99.90
13049;DHT22;6591;51.446;5.404;2023-04-25T03:45:35;7.40;99.90
13049;DHT22;6591;51.446;5.404;2023-04-25T03:48:02;7.50;99.90
13049;DHT22;6591;51.446;5.404;2023-04-25T03:50:30;7.50;99.90
13049;DHT22;6591;51.446;5.404;2023-04-25T03:52:57;7.50;99.90
13049;DHT22;6591;51.446;5.404;2023-04-25T03:55:26;7.50;99.90
13049;DHT22;6591;51.446;5.404;2023-04-25T03:57:53;7.50;99.90
13049;DHT22;6591;51.446;5.404;2023-04-25T04:00:21;7.60;99.90
13049;DHT22;6591;51.446;5.404;2023-04-25T04:02:51;8.00;99.90
13049;DHT22;6591;51.446;5.404;2023-04-25T04:05:18;8.50;99.90
13049;DHT22;6591;51.446;5.404;2023-04-25T04:07:53;7.60;99.90
13049;DHT22;6591;51.446;5.404;2023-04-25T04:10:21;7.60;99.90
13049;DHT22;6591;51.446;5.404;2023-04-25T04:12:48;7.60;99.90
13049;DHT22;6591;51.446;5.404;2023-04-25T04:15:16;9.00;99.90
13049;DHT22;6591;51.446;5.404;2023-04-25T04:17:45;7.90;99.90
13049;DHT22;6591;51.446;5.404;2023-04-25T04:20:14;7.70;99.90
13049;DHT22;6591;51.446;5.404;2023-04-25T04:22:41;7.70;99.90
13049;DHT22;6591;51.446;5.404;2023-04-25T04:25:11;8.80;99.90
13049;DHT22;6591;51.446;5.404;2023-04-25T04:27:58;7.70;99.90
13049;DHT22;6591;51.446;5.404;2023-04-25T04:30:45;7.80;99.90
13049;DHT22;6591;51.446;5.404;2023-04-25T04:33:13;7.80;99.90
13049;DHT22;6591;51.446;5.404;2023-04-25T04:35:43;9.60;99.90
13049;DHT22;6591;51.446;5.404;2023-04-25T04:38:11;8.20;99.90
13049;DHT22;6591;51.446;5.404;2023-04-25T04:40:38;7.80;99.90
13049;DHT22;6591;51.446;5.404;2023-04-25T04:43:11;7.90;99.90
13049;DHT22;6591;51.446;5.404;2023-04-25T04:45:57;7.90;99.90
13049;DHT22;6591;51.446;5.404;2023-04-25T04:48:38;7.90;99.90
13049;DHT22;6591;51.446;5.404;2023-04-25T04:51:21;7.90;99.90
13049;DHT22;6591;51.446;5.404;2023-04-25T04:53:53;7.90;99.90
13049;DHT22;6591;51.446;5.404;2023-04-25T04:56:48;8.00;99.90
13049;DHT22;6591;51.446;5.404;2023-04-25T04:59:28;8.00;99.90
13049;DHT22;6591;51.446;5.404;2023-04-25T05:02:18;8.00;99.90
13049;DHT22;6591;51.446;5.404;2023-04-25T05:05:05;8.10;99.90
13049;DHT22;6591;51.446;5.404;2023-04-25T05:07:55;8.10;99.90
13049;DHT22;6591;51.446;5.404;2023-04-25T05:10:40;8.10;99.90
13049;DHT22;6591;51.446;5.404;2023-04-25T05:13:43;8.10;99.90
13049;DHT22;6591;51.446;5.404;2023-04-25T05:16:18;8.10;99.90
13049;DHT22;6591;51.446;5.404;2023-04-25T05:18:56;8.90;99.90
13049;DHT22;6591;51.446;5.404;2023-04-25T05:21:31;10.10;99.90
13049;DHT22;6591;51.446;5.404;2023-04-25T05:24:17;9.10;99.90
13049;DHT22;6591;51.446;5.404;2023-04-25T05:26:50;8.20;99.90
13049;DHT22;6591;51.446;5.404;2023-04-25T05:29:46;8.30;99.90
13049;DHT22;6591;51.446;5.404;2023-04-25T05:32:21;8.30;99.90
13049;DHT22;6591;51.446;5.404;2023-04-25T05:34:49;8.40;99.90
13049;DHT22;6591;51.446;5.404;2023-04-25T05:37:23;8.40;99.90
13049;DHT22;6591;51.446;5.404;2023-04-25T05:39:54;8.50;99.90
13049;DHT22;6591;51.446;5.404;2023-04-25T05:42:40;8.90;99.90
13049;DHT22;6591;51.446;5.404;2023-04-25T05:45:27;8.60;99.90
13049;DHT22;6591;51.446;5.404;2023-04-25T05:48:03;10.50;99.90
13049;DHT22;6591;51.446;5.404;2023-04-25T05:51:02;8.80;99.90
13049;DHT22;6591;51.446;5.404;2023-04-25T05:53:59;8.90;99.90
13049;DHT22;6591;51.446;5.404;2023-04-25T05:56:26;8.90;99.90
13049;DHT22;6591;51.446;5.404;2023-04-25T05:58:54;9.00;99.90
13049;DHT22;6591;51.446;5.404;2023-04-25T06:01:22;9.10;99.90
13049;DHT22;6591;51.446;5.404;2023-04-25T06:03:50;9.20;99.90
13049;DHT22;6591;51.446;5.404;2023-04-25T06:06:20;9.20;99.90
13049;DHT22;6591;51.446;5.404;2023-04-25T06:08:47;9.20;99.90
13049;DHT22;6591;51.446;5.404;2023-04-25T06:11:13;9.30;99.90
13049;DHT22;6591;51.446;5.404;2023-04-25T06:13:41;9.30;99.90
13049;DHT22;6591;51.446;5.404;2023-04-25T06:16:08;9.40;99.90
13049;DHT22;6591;51.446;5.404;2023-04-25T06:18:35;9.40;99.90
13049;DHT22;6591;51.446;5.404;2023-04-25T06:21:02;9.60;99.90
13049;DHT22;6591;51.446;5.404;2023-04-25T06:23:29;9.60;99.90
13049;DHT22;6591;51.446;5.404;2023-04-25T06:26:01;11.40;99.90
13049;DHT22;6591;51.446;5.404;2023-04-25T06:28:30;9.80;99.90
13049;DHT22;6591;51.446;5.404;2023-04-25T06:30:57;9.80;99.90
13049;DHT22;6591;51.446;5.404;2023-04-25T06:33:24;9.80;99.90
13049;DHT22;6591;51.446;5.404;2023-04-25T06:35:53;9.90;99.90
13049;DHT22;6591;51.446;5.404;2023-04-25T06:38:23;9.90;99.90
13049;DHT22;6591;51.446;5.404;2023-04-25T06:40:52;11.70;99.90
13049;DHT22;6591;51.446;5.404;2023-04-25T06:43:19;9.90;99.90
13049;DHT22;6591;51.446;5.404;2023-04-25T06:46:24;10.00;99.90
13049;DHT22;6591;51.446;5.404;2023-04-25T06:48:53;10.00;99.90
13049;DHT22;6591;51.446;5.404;2023-04-25T06:51:21;10.10;99.90
13049;DHT22;6591;51.446;5.404;2023-04-25T06:53:53;10.20;99.90
13049;DHT22;6591;51.446;5.404;2023-04-25T06:56:30;10.30;99.90
13049;DHT22;6591;51.446;5.404;2023-04-25T06:59:08;10.40;99.90
13049;DHT22;6591;51.446;5.404;2023-04-25T07:01:37;10.50;99.90
13049;DHT22;6591;51.446;5.404;2023-04-25T07:04:09;10.90;99.90
13049;DHT22;6591;51.446;5.404;2023-04-25T07:06:42;10.60;99.90
13049;DHT22;6591;51.446;5.404;2023-04-25T07:09:10;10.70;99.90
13049;DHT22;6591;51.446;5.404;2023-04-25T07:11:38;10.70;99.90
13049;DHT22;6591;51.446;5.404;2023-04-25T07:14:06;10.80;99.90
13049;DHT22;6591;51.446;5.404;2023-04-25T07:16:33;11.10;99.90
13049;DHT22;6591;51.446;5.404;2023-04-25T07:19:01;10.90;99.90
13049;DHT22;6591;51.446;5.404;2023-04-25T07:21:28;11.00;99.90
13049;DHT22;6591;51.446;5.404;2023-04-25T07:24:00;11.10;99.90
13049;DHT22;6591;51.446;5.404;2023-04-25T07:26:32;12.60;99.90
13049;DHT22;6591;51.446;5.404;2023-04-25T07:29:16;11.30;99.90
13049;DHT22;6591;51.446;5.404;2023-04-25T07:31:43;11.30;99.90
13049;DHT22;6591;51.446;5.404;2023-04-25T07:34:10;11.40;99.90
13049;DHT22;6591;51.446;5.404;2023-04-25T07:36:38;11.50;99.90
13049;DHT22;6591;51.446;5.404;2023-04-25T07:39:05;11.60;99.90
13049;DHT22;6591;51.446;5.404;2023-04-25T07:41:33;11.70;99.90
13049;DHT22;6591;51.446;5.404;2023-04-25T07:44:00;11.90;99.90
13049;DHT22;6591;51.446;5.404;2023-04-25T07:46:30;12.00;99.90
13049;DHT22;6591;51.446;5.404;2023-04-25T07:48:57;12.10;99.90
13049;DHT22;6591;51.446;5.404;2023-04-25T07:51:24;12.20;99.90
13049;DHT22;6591;51.446;5.404;2023-04-25T07:53:54;12.30;99.30
13049;DHT22;6591;51.446;5.404;2023-04-25T07:56:21;12.40;98.60
13049;DHT22;6591;51.446;5.404;2023-04-25T07:58:49;13.40;98.20
13049;DHT22;6591;51.446;5.404;2023-04-25T08:01:18;12.60;97.50
13049;DHT22;6591;51.446;5.404;2023-04-25T08:03:55;12.60;96.40
13049;DHT22;6591;51.446;5.404;2023-04-25T08:06:33;12.60;96.30
13049;DHT22;6591;51.446;5.404;2023-04-25T08:09:11;12.60;96.00
13049;DHT22;6591;51.446;5.404;2023-04-25T08:11:41;12.70;96.30
13049;DHT22;6591;51.446;5.404;2023-04-25T08:14:11;12.70;96.90
13049;DHT22;6591;51.446;5.404;2023-04-25T08:16:41;13.50;96.30
13049;DHT22;6591;51.446;5.404;2023-04-25T08:19:09;12.70;96.10
13049;DHT22;6591;51.446;5.404;2023-04-25T08:21:37;12.70;95.60
13049;DHT22;6591;51.446;5.404;2023-04-25T08:24:10;12.70;95.60
13049;DHT22;6591;51.446;5.404;2023-04-25T08:26:39;13.40;95.20
13049;DHT22;6591;51.446;5.404;2023-04-25T08:29:09;12.80;95.50
13049;DHT22;6591;51.446;5.404;2023-04-25T08:31:39;12.50;95.30
13049;DHT22;6591;51.446;5.404;2023-04-25T08:34:07;12.40;96.00
13049;DHT22;6591;51.446;5.404;2023-04-25T08:36:42;14.50;96.80
13049;DHT22;6591;51.446;5.404;2023-04-25T08:39:32;12.30;96.80
13049;DHT22;6591;51.446;5.404;2023-04-25T08:42:21;12.40;97.50
13049;DHT22;6591;51.446;5.404;2023-04-25T08:44:50;12.80;97.90
13049;DHT22;6591;51.446;5.404;2023-04-25T08:47:22;12.40;97.30
13049;DHT22;6591;51.446;5.404;2023-04-25T08:49:56;12.40;96.70
13049;DHT22;6591;51.446;5.404;2023-04-25T08:52:24;12.40;96.80
13049;DHT22;6591;51.446;5.404;2023-04-25T08:54:57;12.50;96.40
13049;DHT22;6591;51.446;5.404;2023-04-25T08:57:29;12.60;97.00
13049;DHT22;6591;51.446;5.404;2023-04-25T08:59:58;12.70;96.60
13049;DHT22;6591;51.446;5.404;2023-04-25T09:02:31;11.40;96.20
13049;DHT22;6591;51.446;5.404;2023-04-25T09:05:02;12.90;96.10
13049;DHT22;6591;51.446;5.404;2023-04-25T09:07:30;13.00;97.40
13049;DHT22;6591;51.446;5.404;2023-04-25T09:10:00;13.20;96.10
13049;DHT22;6591;51.446;5.404;2023-04-25T09:12:35;13.30;96.10
13049;DHT22;6591;51.446;5.404;2023-04-25T09:15:10;13.50;97.40
13049;DHT22;6591;51.446;5.404;2023-04-25T09:18:06;15.10;96.90
13049;DHT22;6591;51.446;5.404;2023-04-25T09:20:42;13.70;95.70
13049;DHT22;6591;51.446;5.404;2023-04-25T09:23:28;13.80;94.60
13049;DHT22;6591;51.446;5.404;2023-04-25T09:25:55;14.00;95.30
13049;DHT22;6591;51.446;5.404;2023-04-25T09:28:26;14.00;94.90
13049;DHT22;6591;51.446;5.404;2023-04-25T09:30:58;14.20;95.80
13049;DHT22;6591;51.446;5.404;2023-04-25T09:33:32;14.30;95.30
13049;DHT22;6591;51.446;5.404;2023-04-25T09:36:08;14.40;93.70
13049;DHT22;6591;51.446;5.404;2023-04-25T09:38:47;14.50;91.90
13049;DHT22;6591;51.446;5.404;2023-04-25T09:41:23;14.60;92.50
13049;DHT22;6591;51.446;5.404;2023-04-25T09:43:56;14.60;92.20
13049;DHT22;6591;51.446;5.404;2023-04-25T09:46:34;14.60;92.60
13049;DHT22;6591;51.446;5.404;2023-04-25T09:49:20;14.90;92.60
13049;DHT22;6591;51.446;5.404;2023-04-25T09:52:04;14.80;93.20
13049;DHT22;6591;51.446;5.404;2023-04-25T09:54:41;14.90;94.20
13049;DHT22;6591;51.446;5.404;2023-04-25T09:57:20;15.00;93.80
13049;DHT22;6591;51.446;5.404;2023-04-25T09:59:55;16.50;92.80
13049;DHT22;6591;51.446;5.404;2023-04-25T10:02:25;15.10;91.40
13049;DHT22;6591;51.446;5.404;2023-04-25T10:05:01;15.10;91.80
13049;DHT22;6591;51.446;5.404;2023-04-25T10:07:38;15.10;91.80
13049;DHT22;6591;51.446;5.404;2023-04-25T10:10:12;15.20;91.80
13049;DHT22;6591;51.446;5.404;2023-04-25T10:12:40;15.30;91.30
13049;DHT22;6591;51.446;5.404;2023-04-25T10:15:10;16.60;92.40
13049;DHT22;6591;51.446;5.404;2023-04-25T10:17:40;15.50;92.10
13049;DHT22;6591;51.446;5.404;2023-04-25T10:20:08;15.70;92.70
13049;DHT22;6591;51.446;5.404;2023-04-25T10:22:41;15.80;91.20
13049;DHT22;6591;51.446;5.404;2023-04-25T10:25:11;15.90;91.90
13049;DHT22;6591;51.446;5.404;2023-04-25T10:27:39;16.00;91.80
13049;DHT22;6591;51.446;5.404;2023-04-25T10:30:13;16.00;88.50
13049;DHT22;6591;51.446;5.404;2023-04-25T10:32:43;16.00;86.50
13049;DHT22;6591;51.446;5.404;2023-04-25T10:35:23;15.90;87.60
13049;DHT22;6591;51.446;5.404;2023-04-25T10:38:11;15.80;86.80
13049;DHT22;6591;51.446;5.404;2023-04-25T10:40:40;15.80;83.80
13049;DHT22;6591;51.446;5.404;2023-04-25T10:43:42;15.70;86.00
13049;DHT22;6591;51.446;5.404;2023-04-25T10:46:24;15.60;82.30
13049;DHT22;6591;51.446;5.404;2023-04-25T10:49:00;15.10;81.30
13049;DHT22;6591;51.446;5.404;2023-04-25T10:51:34;15.50;85.80
13049;DHT22;6591;51.446;5.404;2023-04-25T10:54:22;15.70;83.80
13049;DHT22;6591;51.446;5.404;2023-04-25T10:56:52;16.00;88.40
13049;DHT22;6591;51.446;5.404;2023-04-25T10:59:19;15.60;85.70
13049;DHT22;6591;51.446;5.404;2023-04-25T11:01:52;15.70;85.80
13049;DHT22;6591;51.446;5.404;2023-04-25T11:04:25;15.60;85.80
13049;DHT22;6591;51.446;5.404;2023-04-25T11:10:11;15.40;89.50
13049;DHT22;6591;51.446;5.404;2023-04-25T11:12:38;15.50;90.60
13049;DHT22;6591;51.446;5.404;2023-04-25T11:15:07;15.70;91.80
13049;DHT22;6591;51.446;5.404;2023-04-25T11:17:34;15.80;91.50
13049;DHT22;6591;51.446;5.404;2023-04-25T11:20:02;17.20;92.40
13049;DHT22;6591;51.446;5.404;2023-04-25T11:22:34;16.20;91.10
13049;DHT22;6591;51.446;5.404;2023-04-25T11:25:11;17.70;90.00
13049;DHT22;6591;51.446;5.404;2023-04-25T11:27:53;16.20;83.10
13049;DHT22;6591;51.446;5.404;2023-04-25T11:30:23;16.00;85.10
13049;DHT22;6591;51.446;5.404;2023-04-25T11:32:52;15.80;86.00
13049;DHT22;6591;51.446;5.404;2023-04-25T11:35:20;15.70;87.70
13049;DHT22;6591;51.446;5.404;2023-04-25T11:37:49;15.40;87.10
13049;DHT22;6591;51.446;5.404;2023-04-25T11:40:16;15.10;86.70
13049;DHT22;6591;51.446;5.404;2023-04-25T11:42:46;14.80;85.40
13049;DHT22;6591;51.446;5.404;2023-04-25T11:45:14;14.60;86.70
13049;DHT22;6591;51.446;5.404;2023-04-25T11:47:41;14.40;87.20
13049;DHT22;6591;51.446;5.404;2023-04-25T11:50:09;14.20;87.60
13049;DHT22;6591;51.446;5.404;2023-04-25T11:52:41;14.10;88.40
13049;DHT22;6591;51.446;5.404;2023-04-25T11:55:17;14.00;87.30
13049;DHT22;6591;51.446;5.404;2023-04-25T11:57:49;14.00;86.30
13049;DHT22;6591;51.446;5.404;2023-04-25T12:00:20;14.00;86.60
13049;DHT22;6591;51.446;5.404;2023-04-25T12:02:53;14.00;87.80
13049;DHT22;6591;51.446;5.404;2023-04-25T12:05:30;14.00;89.20
13049;DHT22;6591;51.446;5.404;2023-04-25T12:08:13;14.10;87.10
13049;DHT22;6591;51.446;5.404;2023-04-25T12:10:43;14.30;88.10
13049;DHT22;6591;51.446;5.404;2023-04-25T12:13:22;14.50;89.40
13049;DHT22;6591;51.446;5.404;2023-04-25T12:15:55;14.30;87.30
13049;DHT22;6591;51.446;5.404;2023-04-25T12:18:24;15.70;89.50
13049;DHT22;6591;51.446;5.404;2023-04-25T12:20:54;14.30;89.10
13049;DHT22;6591;51.446;5.404;2023-04-25T12:23:28;14.30;90.00
13049;DHT22;6591;51.446;5.404;2023-04-25T12:25:56;14.30;89.80
13049;DHT22;6591;51.446;5.404;2023-04-25T12:28:25;14.50;90.80
13049;DHT22;6591;51.446;5.404;2023-04-25T12:31:04;14.60;91.20
13049;DHT22;6591;51.446;5.404;2023-04-25T12:33:37;14.60;90.90
13049;DHT22;6591;51.446;5.404;2023-04-25T12:36:06;14.30;91.30
13049;DHT22;6591;51.446;5.404;2023-04-25T12:38:39;15.00;91.60
13049;DHT22;6591;51.446;5.404;2023-04-25T12:41:08;16.00;90.00
13049;DHT22;6591;51.446;5.404;2023-04-25T12:43:35;15.50;90.30
13049;DHT22;6591;51.446;5.404;2023-04-25T12:46:03;15.70;89.30
13049;DHT22;6591;51.446;5.404;2023-04-25T12:48:29;16.40;83.70
13049;DHT22;6591;51.446;5.404;2023-04-25T12:50:56;15.80;84.20
13049;DHT22;6591;51.446;5.404;2023-04-25T12:53:23;15.70;83.70
13049;DHT22;6591;51.446;5.404;2023-04-25T12:55:51;15.60;84.30
13049;DHT22;6591;51.446;5.404;2023-04-25T12:58:19;15.60;85.30
13049;DHT22;6591;51.446;5.404;2023-04-25T13:00:46;15.40;86.30
13049;DHT22;6591;51.446;5.404;2023-04-25T13:03:14;16.00;83.80
13049;DHT22;6591;51.446;5.404;2023-04-25T13:05:42;15.10;78.40
13049;DHT22;6591;51.446;5.404;2023-04-25T13:08:09;15.00;78.70
13049;DHT22;6591;51.446;5.404;2023-04-25T13:10:36;14.90;79.50
13049;DHT22;6591;51.446;5.404;2023-04-25T13:13:05;15.30;81.60
13049;DHT22;6591;51.446;5.404;2023-04-25T13:15:32;14.60;83.50
13049;DHT22;6591;51.446;5.404;2023-04-25T13:17:59;15.30;83.00
13049;DHT22;6591;51.446;5.404;2023-04-25T13:20:26;14.60;84.30
13049;DHT22;6591;51.446;5.404;2023-04-25T13:22:53;14.50;83.10
13049;DHT22;6591;51.446;5.404;2023-04-25T13:25:20;14.50;82.80
13049;DHT22;6591;51.446;5.404;2023-04-25T13:27:48;14.50;81.80
13049;DHT22;6591;51.446;5.404;2023-04-25T13:30:15;14.50;80.20
13049;DHT22;6591;51.446;5.404;2023-04-25T13:32:42;14.40;81.40
13049;DHT22;6591;51.446;5.404;2023-04-25T13:35:11;14.30;80.70
13049;DHT22;6591;51.446;5.404;2023-04-25T13:37:40;14.30;81.10
13049;DHT22;6591;51.446;5.404;2023-04-25T13:40:09;14.40;81.80
13049;DHT22;6591;51.446;5.404;2023-04-25T13:42:38;14.30;81.30
13049;DHT22;6591;51.446;5.404;2023-04-25T13:45:07;14.30;81.70
13049;DHT22;6591;51.446;5.404;2023-04-25T13:47:34;14.20;81.50
13049;DHT22;6591;51.446;5.404;2023-04-25T13:50:03;14.10;82.70
13049;DHT22;6591;51.446;5.404;2023-04-25T13:52:32;14.10;82.80
13049;DHT22;6591;51.446;5.404;2023-04-25T13:54:59;14.10;84.20
13049;DHT22;6591;51.446;5.404;2023-04-25T13:57:26;14.20;82.30
13049;DHT22;6591;51.446;5.404;2023-04-25T13:59:54;14.30;81.30
13049;DHT22;6591;51.446;5.404;2023-04-25T14:02:21;14.40;81.10
13049;DHT22;6591;51.446;5.404;2023-04-25T14:04:48;15.50;82.80
13049;DHT22;6591;51.446;5.404;2023-04-25T14:07:15;14.60;81.60
13049;DHT22;6591;51.446;5.404;2023-04-25T14:09:42;14.80;79.70
13049;DHT22;6591;51.446;5.404;2023-04-25T14:12:10;16.90;81.80
13049;DHT22;6591;51.446;5.404;2023-04-25T14:14:37;14.90;82.20
13049;DHT22;6591;51.446;5.404;2023-04-25T14:17:04;15.20;81.90
13049;DHT22;6591;51.446;5.404;2023-04-25T14:19:32;15.50;83.60
13049;DHT22;6591;51.446;5.404;2023-04-25T14:21:59;16.70;81.80
13049;DHT22;6591;51.446;5.404;2023-04-25T14:24:27;17.20;77.30
13049;DHT22;6591;51.446;5.404;2023-04-25T14:26:54;16.30;77.50
13049;DHT22;6591;51.446;5.404;2023-04-25T14:29:21;17.60;77.20
13049;DHT22;6591;51.446;5.404;2023-04-25T14:31:48;17.40;75.40
13049;DHT22;6591;51.446;5.404;2023-04-25T14:34:15;16.20;74.60
13049;DHT22;6591;51.446;5.404;2023-04-25T14:36:42;16.40;74.80
13049;DHT22;6591;51.446;5.404;2023-04-25T14:39:09;15.70;75.00
13049;DHT22;6591;51.446;5.404;2023-04-25T14:41:36;15.60;75.20
13049;DHT22;6591;51.446;5.404;2023-04-25T14:44:04;15.20;74.70
13049;DHT22;6591;51.446;5.404;2023-04-25T14:46:32;15.60;76.50
13049;DHT22;6591;51.446;5.404;2023-04-25T14:48:59;14.80;77.60
13049;DHT22;6591;51.446;5.404;2023-04-25T14:51:26;14.70;76.50
13049;DHT22;6591;51.446;5.404;2023-04-25T14:53:54;14.60;75.00
13049;DHT22;6591;51.446;5.404;2023-04-25T14:56:22;14.60;75.80
13049;DHT22;6591;51.446;5.404;2023-04-25T14:58:49;15.20;76.80
13049;DHT22;6591;51.446;5.404;2023-04-25T15:01:16;14.80;75.90
13049;DHT22;6591;51.446;5.404;2023-04-25T15:03:43;15.00;77.20
13049;DHT22;6591;51.446;5.404;2023-04-25T15:06:10;15.00;78.60
13049;DHT22;6591;51.446;5.404;2023-04-25T15:08:37;15.10;75.60
13049;DHT22;6591;51.446;5.404;2023-04-25T15:11:04;15.20;75.00
13049;DHT22;6591;51.446;5.404;2023-04-25T15:13:31;15.40;75.00
13049;DHT22;6591;51.446;5.404;2023-04-25T15:15:59;15.60;76.30
13049;DHT22;6591;51.446;5.404;2023-04-25T15:18:26;16.40;75.20
13049;DHT22;6591;51.446;5.404;2023-04-25T15:20:53;15.30;77.20
13049;DHT22;6591;51.446;5.404;2023-04-25T15:23:23;18.30;75.30
13049;DHT22;6591;51.446;5.404;2023-04-25T15:25:51;17.00;73.40
13049;DHT22;6591;51.446;5.404;2023-04-25T15:29:08;18.40;74.50
13049;DHT22;6591;51.446;5.404;2023-04-25T15:32:49;17.30;71.90
13049;DHT22;6591;51.446;5.404;2023-04-25T15:35:17;17.00;70.30
13049;DHT22;6591;51.446;5.404;2023-04-25T15:37:44;17.00;69.60
13049;DHT22;6591;51.446;5.404;2023-04-25T15:40:14;16.50;69.30
13049;DHT22;6591;51.446;5.404;2023-04-25T15:42:43;16.10;71.30
13049;DHT22;6591;51.446;5.404;2023-04-25T15:45:14;16.50;71.10
13049;DHT22;6591;51.446;5.404;2023-04-25T15:47:44;15.50;72.00
13049;DHT22;6591;51.446;5.404;2023-04-25T15:50:11;15.30;74.30
13049;DHT22;6591;51.446;5.404;2023-04-25T15:52:40;15.10;76.30
13049;DHT22;6591;51.446;5.404;2023-04-25T15:55:08;15.10;77.00
13049;DHT22;6591;51.446;5.404;2023-04-25T15:57:36;15.00;74.90
13049;DHT22;6591;51.446;5.404;2023-04-25T16:00:04;14.80;75.30
13049;DHT22;6591;51.446;5.404;2023-04-25T16:02:40;14.70;75.10
13049;DHT22;6591;51.446;5.404;2023-04-25T16:05:08;14.70;76.40
13049;DHT22;6591;51.446;5.404;2023-04-25T16:07:42;14.60;77.80
13049;DHT22;6591;51.446;5.404;2023-04-25T16:10:12;15.80;78.20
13049;DHT22;6591;51.446;5.404;2023-04-25T16:12:40;14.90;77.60
13049;DHT22;6591;51.446;5.404;2023-04-25T16:15:08;15.10;77.30
13049;DHT22;6591;51.446;5.404;2023-04-25T16:17:35;15.30;76.90
13049;DHT22;6591;51.446;5.404;2023-04-25T16:20:03;15.50;77.60
13049;DHT22;6591;51.446;5.404;2023-04-25T16:22:41;15.60;78.40